Time;durP1;ratioP1;P1;durP2;ratioP2;P2;SDS_P1;SDS_P2;PMS_P1;PMS_P2;Temp;Humidity;BMP_temperature;BMP_pressure;BME280_temperature;BME280_humidity;BME280_pressure;Samples;Min_cycle;Max_cycle;Signal;HPM_P1;HPM_P2
2022/02/21 00:00:39;;;;;;;3.47;0.80;;;;;;;;;;4974540;28;20045;-79
2022/02/21 00:03:06;;;;;;;3.28;0.60;;;;;;;;;;4959430;28;20511;-79
2022/02/21 00:05:33;;;;;;;2.90;0.68;;;;;;;;;;4986553;28;20500;-79
2022/02/21 00:07:58;;;;;;;2.65;0.57;;;;;;;;;;4995282;28;20038;-78
2022/02/21 00:10:24;;;;;;;3.13;0.60;;;;;;;;;;4994462;28;20066;-79
2022/02/21 00:12:50;;;;;;;4.30;1.17;;;;;;;;;;4995106;28;20405;-79
2022/02/21 00:15:20;;;;;;;2.58;0.50;;;;;;;;;;4947147;28;20034;-79
2022/02/21 00:17:45;;;;;;;2.10;0.50;;;;;;;;;;4960920;28;20527;-79
2022/02/21 00:20:12;;;;;;;3.40;0.88;;;;;;;;;;4973361;28;20046;-78
2022/02/21 00:22:37;;;;;;;1.75;0.70;;;;;;;;;;4978423;28;20037;-79
2022/02/21 00:25:03;;;;;;;3.13;0.60;;;;;;;;;;4993787;28;20046;-79
2022/02/21 00:27:29;;;;;;;1.80;0.70;;;;;;;;;;4961789;28;20048;-78
2022/02/21 00:30:01;;;;;;;3.17;0.70;;;;;;;;;;4976965;28;20483;-79
2022/02/21 00:32:27;;;;;;;1.27;0.43;;;;;;;;;;4991098;28;20034;-78
2022/02/21 00:34:55;;;;;;;2.55;0.50;;;;;;;;;;4976341;28;20547;-78
2022/02/21 00:37:28;;;;;;;2.28;0.60;;;;;;;;;;4992712;28;20034;-79
2022/02/21 00:39:54;;;;;;;2.83;0.50;;;;;;;;;;4961443;28;20052;-79
2022/02/21 00:42:22;;;;;;;1.35;0.40;;;;;;;;;;4972910;28;20038;-79
2022/02/21 00:44:48;;;;;;;2.72;0.65;;;;;;;;;;4967201;28;20050;-78
2022/02/21 00:47:14;;;;;;;3.85;1.13;;;;;;;;;;4980174;28;20582;-79
2022/02/21 00:49:40;;;;;;;2.67;0.50;;;;;;;;;;4974499;28;20052;-79
2022/02/21 00:52:05;;;;;;;2.40;0.55;;;;;;;;;;5002186;28;20030;-78
2022/02/21 00:54:31;;;;;;;2.65;0.60;;;;;;;;;;4994156;28;20038;-78
2022/02/21 00:56:56;;;;;;;2.63;0.75;;;;;;;;;;4994067;28;20496;-79
2022/02/21 00:59:22;;;;;;;3.55;0.63;;;;;;;;;;4978159;28;20116;-79
2022/02/21 01:01:47;;;;;;;3.72;0.68;;;;;;;;;;4994151;28;20111;-79
2022/02/21 01:04:13;;;;;;;2.78;1.00;;;;;;;;;;4977405;28;20041;-79
2022/02/21 01:06:38;;;;;;;2.45;1.05;;;;;;;;;;4994368;28;20038;-79
2022/02/21 01:09:04;;;;;;;3.20;0.60;;;;;;;;;;4973885;28;20041;-79
2022/02/21 01:11:30;;;;;;;4.00;0.80;;;;;;;;;;4979796;28;20049;-78
2022/02/21 01:13:57;;;;;;;2.42;1.15;;;;;;;;;;4993654;28;20133;-79
2022/02/21 01:16:24;;;;;;;1.65;0.57;;;;;;;;;;4966527;28;20105;-79
2022/02/21 01:18:50;;;;;;;2.13;0.60;;;;;;;;;;4989641;28;20124;-78
2022/02/21 01:21:16;;;;;;;3.00;0.77;;;;;;;;;;4993900;28;20419;-78
2022/02/21 01:23:41;;;;;;;2.38;0.57;;;;;;;;;;4993153;28;20129;-79
2022/02/21 01:26:07;;;;;;;3.30;0.80;;;;;;;;;;4943559;28;20042;-79
2022/02/21 01:28:32;;;;;;;3.08;0.60;;;;;;;;;;4993976;28;20076;-78
2022/02/21 01:30:58;;;;;;;2.70;0.50;;;;;;;;;;4993916;28;20038;-78
2022/02/21 01:33:24;;;;;;;3.45;0.70;;;;;;;;;;4993779;28;20041;-78
2022/02/21 01:35:49;;;;;;;2.78;0.80;;;;;;;;;;4995032;28;20126;-78
2022/02/21 01:38:15;;;;;;;2.63;0.75;;;;;;;;;;4994168;28;20405;-78
2022/02/21 01:40:40;;;;;;;1.90;0.55;;;;;;;;;;4997513;28;20404;-78
2022/02/21 01:43:06;;;;;;;2.55;0.60;;;;;;;;;;4996905;28;20459;-78
2022/02/21 01:45:31;;;;;;;2.72;0.60;;;;;;;;;;4997483;28;20119;-78
2022/02/21 01:47:57;;;;;;;2.97;1.00;;;;;;;;;;4997200;28;20109;-77
2022/02/21 01:50:22;;;;;;;2.08;0.80;;;;;;;;;;4997171;28;20065;-77
2022/02/21 01:52:48;;;;;;;2.72;0.60;;;;;;;;;;4996582;28;20042;-76
2022/02/21 01:55:13;;;;;;;3.55;0.65;;;;;;;;;;4981166;28;20124;-77
2022/02/21 01:57:41;;;;;;;3.28;0.60;;;;;;;;;;4996917;28;20092;-77
2022/02/21 02:00:07;;;;;;;4.03;0.57;;;;;;;;;;5012297;28;20109;-77
2022/02/21 02:02:32;;;;;;;4.28;0.90;;;;;;;;;;4996974;28;20049;-76
2022/02/21 02:04:58;;;;;;;3.55;1.38;;;;;;;;;;4996495;28;20559;-77
2022/02/21 02:07:23;;;;;;;3.40;0.77;;;;;;;;;;4976938;28;20436;-77
2022/02/21 02:09:49;;;;;;;2.72;0.60;;;;;;;;;;4989634;28;20412;-77
2022/02/21 02:12:14;;;;;;;3.22;0.88;;;;;;;;;;4964491;28;20096;-77
2022/02/21 02:14:40;;;;;;;3.63;1.58;;;;;;;;;;4996417;28;20496;-77
2022/02/21 02:17:11;;;;;;;3.63;1.10;;;;;;;;;;4996584;28;20452;-76
2022/02/21 02:19:37;;;;;;;3.38;1.33;;;;;;;;;;4996382;28;20053;-77
2022/02/21 02:22:23;;;;;;;3.42;1.05;;;;;;;;;;4996887;28;20041;-77
2022/02/21 02:24:50;;;;;;;3.65;1.20;;;;;;;;;;4996625;28;20104;-77
2022/02/21 02:27:16;;;;;;;5.75;1.58;;;;;;;;;;4976718;28;20489;-77
2022/02/21 02:29:44;;;;;;;7.00;1.52;;;;;;;;;;4993977;28;20034;-77
2022/02/21 02:32:09;;;;;;;5.57;1.10;;;;;;;;;;5013080;28;20488;-77
2022/02/21 02:34:40;;;;;;;3.95;1.20;;;;;;;;;;4996612;28;20037;-77
2022/02/21 02:37:05;;;;;;;4.15;1.20;;;;;;;;;;4980412;28;20518;-77
2022/02/21 02:39:30;;;;;;;4.13;1.10;;;;;;;;;;4996354;28;20034;-76
2022/02/21 02:41:56;;;;;;;4.60;1.05;;;;;;;;;;4972240;28;20134;-77
2022/02/21 02:44:22;;;;;;;2.78;0.88;;;;;;;;;;4986902;28;20190;-76
2022/02/21 02:46:47;;;;;;;3.75;1.08;;;;;;;;;;4996334;28;20064;-76
2022/02/21 02:49:13;;;;;;;3.67;1.08;;;;;;;;;;4996095;28;20117;-77
2022/02/21 02:51:38;;;;;;;12.35;1.40;;;;;;;;;;4977982;28;20112;-77
2022/02/21 02:54:13;;;;;;;2.33;0.70;;;;;;;;;;4996567;28;20125;-77
2022/02/21 02:56:39;;;;;;;3.40;1.00;;;;;;;;;;4996338;28;20053;-77
2022/02/21 02:59:05;;;;;;;2.58;0.88;;;;;;;;;;4956985;28;20034;-77
2022/02/21 03:01:30;;;;;;;3.10;0.80;;;;;;;;;;4992815;28;20036;-77
2022/02/21 03:03:56;;;;;;;2.97;0.88;;;;;;;;;;4981784;28;20039;-77
2022/02/21 03:06:21;;;;;;;2.08;0.80;;;;;;;;;;4992694;28;20038;-77
2022/02/21 03:08:47;;;;;;;2.85;0.98;;;;;;;;;;4996002;28;20420;-77
2022/02/21 03:11:12;;;;;;;3.30;1.15;;;;;;;;;;4987950;28;20038;-77
2022/02/21 03:13:38;;;;;;;3.33;0.95;;;;;;;;;;4960619;28;20425;-77
2022/02/21 03:16:03;;;;;;;2.88;1.02;;;;;;;;;;4987111;28;20052;-77
2022/02/21 03:18:30;;;;;;;3.10;0.98;;;;;;;;;;5011607;28;20042;-77
2022/02/21 03:20:55;;;;;;;3.55;1.10;;;;;;;;;;4995603;28;20039;-77
2022/02/21 03:23:21;;;;;;;3.78;1.15;;;;;;;;;;5012145;28;20046;-77
2022/02/21 03:25:46;;;;;;;3.13;0.75;;;;;;;;;;5012246;28;20049;-76
2022/02/21 03:28:12;;;;;;;2.53;0.70;;;;;;;;;;5012228;28;20038;-76
2022/02/21 03:30:37;;;;;;;3.90;1.00;;;;;;;;;;4995569;28;20037;-76
2022/02/21 03:33:04;;;;;;;4.32;1.25;;;;;;;;;;4995309;28;20069;-76
2022/02/21 03:35:30;;;;;;;5.13;1.30;;;;;;;;;;5011527;28;20042;-76
2022/02/21 03:37:55;;;;;;;2.92;0.98;;;;;;;;;;5011167;28;20491;-76
2022/02/21 03:40:21;;;;;;;3.78;0.90;;;;;;;;;;4994427;28;20046;-76
2022/02/21 03:42:46;;;;;;;5.00;1.42;;;;;;;;;;4988232;28;20129;-76
2022/02/21 03:45:12;;;;;;;4.50;1.05;;;;;;;;;;5011768;28;20412;-76
2022/02/21 03:47:37;;;;;;;2.97;0.70;;;;;;;;;;4979707;28;20420;-76
2022/02/21 03:50:03;;;;;;;5.63;1.05;;;;;;;;;;4978282;28;20061;-77
2022/02/21 03:52:29;;;;;;;4.18;1.48;;;;;;;;;;4994959;28;20049;-76
2022/02/21 03:54:54;;;;;;;3.47;0.65;;;;;;;;;;5010220;28;20156;-76
2022/02/21 03:57:20;;;;;;;5.53;2.00;;;;;;;;;;4978015;28;20069;-76
2022/02/21 03:59:45;;;;;;;3.63;1.13;;;;;;;;;;5011191;28;20390;-76
2022/02/21 04:02:11;;;;;;;3.35;0.85;;;;;;;;;;4994889;28;20459;-76
2022/02/21 04:04:36;;;;;;;4.43;1.13;;;;;;;;;;4994730;28;20423;-76
2022/02/21 04:07:01;;;;;;;3.85;1.02;;;;;;;;;;4986056;28;20046;-76
2022/02/21 04:09:27;;;;;;;3.70;1.30;;;;;;;;;;4984072;28;20038;-76
2022/02/21 04:11:52;;;;;;;6.78;1.40;;;;;;;;;;4974985;28;20054;-76
2022/02/21 04:14:18;;;;;;;5.63;1.40;;;;;;;;;;4967725;28;20400;-76
2022/02/21 04:16:43;;;;;;;4.00;1.30;;;;;;;;;;5011388;28;20076;-76
2022/02/21 04:19:08;;;;;;;2.88;0.88;;;;;;;;;;4994691;28;20504;-76
2022/02/21 04:21:36;;;;;;;3.67;1.10;;;;;;;;;;4994674;28;20042;-76
2022/02/21 04:24:03;;;;;;;5.20;1.55;;;;;;;;;;4994363;28;20034;-76
2022/02/21 04:26:28;;;;;;;4.18;1.30;;;;;;;;;;4978572;28;20056;-76
2022/02/21 04:28:54;;;;;;;5.88;1.20;;;;;;;;;;4994751;28;20045;-76
2022/02/21 04:31:19;;;;;;;5.75;1.55;;;;;;;;;;4994823;28;20044;-76
2022/02/21 04:33:45;;;;;;;4.30;1.17;;;;;;;;;;4994363;28;20053;-76
2022/02/21 04:36:14;;;;;;;6.32;1.42;;;;;;;;;;4993944;28;20420;-76
2022/02/21 04:38:39;;;;;;;4.32;1.27;;;;;;;;;;4994967;28;20033;-77
2022/02/21 04:41:05;;;;;;;3.88;1.23;;;;;;;;;;5010410;28;20407;-76
2022/02/21 04:43:30;;;;;;;3.53;1.20;;;;;;;;;;4994042;28;20046;-76
2022/02/21 04:45:56;;;;;;;5.20;1.85;;;;;;;;;;4994081;28;20050;-76
2022/02/21 04:48:22;;;;;;;3.55;1.27;;;;;;;;;;4993369;28;20031;-76
2022/02/21 04:50:47;;;;;;;4.90;1.17;;;;;;;;;;4994311;28;20073;-76
2022/02/21 04:53:13;;;;;;;3.40;1.58;;;;;;;;;;4977981;28;20029;-76
2022/02/21 04:55:38;;;;;;;4.70;1.40;;;;;;;;;;5011004;28;20125;-76
2022/02/21 04:58:03;;;;;;;5.78;1.25;;;;;;;;;;5010321;28;20063;-76
2022/02/21 05:00:29;;;;;;;7.38;1.50;;;;;;;;;;4993676;28;20097;-76
2022/02/21 05:02:54;;;;;;;4.55;1.23;;;;;;;;;;5009893;28;20092;-76
2022/02/21 05:05:20;;;;;;;5.00;1.30;;;;;;;;;;5009263;28;20077;-76
2022/02/21 05:07:46;;;;;;;4.85;1.50;;;;;;;;;;4993521;28;20030;-76
2022/02/21 05:10:12;;;;;;;6.47;1.50;;;;;;;;;;4971078;28;20109;-76
2022/02/21 05:12:37;;;;;;;3.80;1.40;;;;;;;;;;4975523;28;20489;-76
2022/02/21 05:15:03;;;;;;;4.47;1.38;;;;;;;;;;4987373;28;20042;-76
2022/02/21 05:17:29;;;;;;;4.40;1.27;;;;;;;;;;4978032;28;20053;-76
2022/02/21 05:19:54;;;;;;;4.13;1.27;;;;;;;;;;4983074;28;20121;-76
2022/02/21 05:22:20;;;;;;;7.70;2.17;;;;;;;;;;4974707;28;20412;-76
2022/02/21 05:24:47;;;;;;;4.65;1.30;;;;;;;;;;4988435;28;20106;-76
2022/02/21 05:27:12;;;;;;;5.22;1.27;;;;;;;;;;4993793;28;20069;-76
2022/02/21 05:29:38;;;;;;;3.55;1.00;;;;;;;;;;5010644;28;20065;-76
2022/02/21 05:32:04;;;;;;;4.05;1.48;;;;;;;;;;5010031;28;20042;-76
2022/02/21 05:34:29;;;;;;;2.90;0.90;;;;;;;;;;4993568;28;20049;-76
2022/02/21 05:36:54;;;;;;;5.10;1.35;;;;;;;;;;4994047;28;20045;-77
2022/02/21 05:39:20;;;;;;;4.72;1.15;;;;;;;;;;4993422;28;20409;-76
2022/02/21 05:41:45;;;;;;;4.13;1.60;;;;;;;;;;4992845;28;20041;-76
2022/02/21 05:44:11;;;;;;;4.22;1.25;;;;;;;;;;4993730;28;20468;-76
2022/02/21 05:46:37;;;;;;;6.00;1.98;;;;;;;;;;4993712;28;20104;-76
2022/02/21 05:49:03;;;;;;;6.43;1.75;;;;;;;;;;4993759;28;20124;-76
2022/02/21 05:51:29;;;;;;;4.80;1.23;;;;;;;;;;4994184;28;20514;-76
2022/02/21 05:53:54;;;;;;;6.40;1.55;;;;;;;;;;4964988;28;20046;-76
2022/02/21 05:56:20;;;;;;;5.60;1.80;;;;;;;;;;4994071;28;20523;-76
2022/02/21 05:58:45;;;;;;;4.63;1.17;;;;;;;;;;4993477;28;20033;-76
2022/02/21 06:01:11;;;;;;;5.78;1.27;;;;;;;;;;4993551;28;20034;-76
2022/02/21 06:03:36;;;;;;;4.00;1.40;;;;;;;;;;5009498;28;20061;-76
2022/02/21 06:06:01;;;;;;;4.22;1.40;;;;;;;;;;4993185;28;20447;-76
2022/02/21 06:08:28;;;;;;;4.70;1.45;;;;;;;;;;4993333;28;20408;-76
2022/02/21 06:10:55;;;;;;;6.75;1.27;;;;;;;;;;4974435;28;20070;-76
2022/02/21 06:13:20;;;;;;;6.40;1.52;;;;;;;;;;5006260;28;20045;-76
2022/02/21 06:15:46;;;;;;;5.15;1.25;;;;;;;;;;4979823;28;20046;-76
2022/02/21 06:18:11;;;;;;;4.72;1.63;;;;;;;;;;4989307;28;20416;-77
2022/02/21 06:20:37;;;;;;;6.65;1.38;;;;;;;;;;4993454;28;20084;-77
2022/02/21 06:23:02;;;;;;;6.22;1.25;;;;;;;;;;4978654;28;20415;-76
2022/02/21 06:25:28;;;;;;;4.45;1.40;;;;;;;;;;4997407;28;20058;-75
2022/02/21 06:27:53;;;;;;;4.30;1.48;;;;;;;;;;4997075;28;20168;-76
2022/02/21 06:30:18;;;;;;;7.13;1.95;;;;;;;;;;4997092;28;20508;-74
2022/02/21 06:32:44;;;;;;;6.03;1.38;;;;;;;;;;4996589;28;20116;-75
2022/02/21 06:35:11;;;;;;;6.95;1.48;;;;;;;;;;4996375;28;20403;-73
2022/02/21 06:37:43;;;;;;;5.75;1.23;;;;;;;;;;4996909;28;20423;-74
2022/02/21 06:40:09;;;;;;;7.78;1.80;;;;;;;;;;4978552;28;20034;-75
2022/02/21 06:42:35;;;;;;;8.32;1.88;;;;;;;;;;4977165;28;20046;-75
2022/02/21 06:45:00;;;;;;;4.50;1.52;;;;;;;;;;4992724;28;20420;-75
2022/02/21 06:47:25;;;;;;;8.32;1.85;;;;;;;;;;4994967;28;20073;-76
2022/02/21 06:49:51;;;;;;;7.85;1.90;;;;;;;;;;4975021;28;20042;-75
2022/02/21 06:52:16;;;;;;;8.07;1.40;;;;;;;;;;4996779;28;20038;-75
2022/02/21 06:54:42;;;;;;;6.35;1.75;;;;;;;;;;4995689;28;20045;-76
2022/02/21 06:57:07;;;;;;;8.07;1.77;;;;;;;;;;4976714;28;20456;-76
2022/02/21 06:59:33;;;;;;;11.98;2.92;;;;;;;;;;4980603;28;20045;-76
2022/02/21 07:01:58;;;;;;;9.07;1.92;;;;;;;;;;4996297;28;20041;-75
2022/02/21 07:04:24;;;;;;;10.38;1.95;;;;;;;;;;5011749;28;20045;-75
2022/02/21 07:06:49;;;;;;;7.32;2.35;;;;;;;;;;4996350;28;20049;-76
2022/02/21 07:09:15;;;;;;;7.85;1.38;;;;;;;;;;4976303;28;20105;-75
2022/02/21 07:11:41;;;;;;;6.88;1.70;;;;;;;;;;4990660;28;20038;-75
2022/02/21 07:14:06;;;;;;;9.70;1.50;;;;;;;;;;4996025;28;20087;-76
2022/02/21 07:16:31;;;;;;;5.13;1.25;;;;;;;;;;4996018;28;20042;-75
2022/02/21 07:18:58;;;;;;;7.43;1.60;;;;;;;;;;4988585;28;20026;-76
2022/02/21 07:21:23;;;;;;;8.40;2.10;;;;;;;;;;4976669;28;20117;-75
2022/02/21 07:23:48;;;;;;;6.93;1.92;;;;;;;;;;4996090;28;20542;-76
2022/02/21 07:26:14;;;;;;;7.93;2.15;;;;;;;;;;5005005;28;20056;-76
2022/02/21 07:28:39;;;;;;;7.85;2.83;;;;;;;;;;5011339;28;20129;-76
2022/02/21 07:31:08;;;;;;;7.65;1.67;;;;;;;;;;4995752;28;20064;-76
2022/02/21 07:33:33;;;;;;;7.82;2.55;;;;;;;;;;4995908;28;20033;-76
2022/02/21 07:35:59;;;;;;;10.43;2.20;;;;;;;;;;4979553;28;20068;-76
2022/02/21 07:38:24;;;;;;;4.43;1.35;;;;;;;;;;5012075;28;20076;-76
2022/02/21 07:40:51;;;;;;;8.20;2.10;;;;;;;;;;4995592;28;20635;-76
2022/02/21 07:43:16;;;;;;;5.72;1.98;;;;;;;;;;5011910;28;20038;-76
2022/02/21 07:45:42;;;;;;;7.57;1.50;;;;;;;;;;4995412;28;20045;-76
2022/02/21 07:48:07;;;;;;;5.97;1.50;;;;;;;;;;4989205;28;20034;-76
2022/02/21 07:50:35;;;;;;;7.40;1.65;;;;;;;;;;4992029;28;20412;-76
2022/02/21 07:53:02;;;;;;;7.95;1.20;;;;;;;;;;4967669;28;20042;-76
2022/02/21 07:55:28;;;;;;;5.97;1.23;;;;;;;;;;5008417;28;20117;-75
2022/02/21 07:57:53;;;;;;;3.95;1.35;;;;;;;;;;5008853;28;20508;-76
2022/02/21 08:00:20;;;;;;;4.90;1.45;;;;;;;;;;4995352;28;20045;-76
2022/02/21 08:02:45;;;;;;;5.07;1.13;;;;;;;;;;4995482;28;20034;-76
2022/02/21 08:05:11;;;;;;;6.85;2.17;;;;;;;;;;4978954;28;20038;-76
2022/02/21 08:07:37;;;;;;;4.35;1.63;;;;;;;;;;4995177;28;20041;-75
2022/02/21 08:10:03;;;;;;;6.63;1.70;;;;;;;;;;4994997;28;20496;-76
2022/02/21 08:12:29;;;;;;;7.10;2.00;;;;;;;;;;4995566;28;20096;-75
2022/02/21 08:14:55;;;;;;;3.53;1.20;;;;;;;;;;5011098;28;20041;-76
2022/02/21 08:17:21;;;;;;;4.78;1.55;;;;;;;;;;5011909;28;20037;-76
2022/02/21 08:19:46;;;;;;;6.75;1.85;;;;;;;;;;4995277;28;20048;-76
2022/02/21 08:22:12;;;;;;;6.47;1.40;;;;;;;;;;5011356;28;20092;-75
2022/02/21 08:24:37;;;;;;;5.68;1.63;;;;;;;;;;4994942;28;20404;-76
2022/02/21 08:27:03;;;;;;;4.90;1.30;;;;;;;;;;4994916;28;20404;-76
2022/02/21 08:29:28;;;;;;;4.57;1.45;;;;;;;;;;4994758;28;20432;-76
2022/02/21 08:31:54;;;;;;;7.35;1.90;;;;;;;;;;4995027;28;20057;-76
2022/02/21 08:34:20;;;;;;;5.72;2.13;;;;;;;;;;4994397;28;20320;-75
2022/02/21 08:36:45;;;;;;;6.82;1.77;;;;;;;;;;4995034;28;20030;-77
2022/02/21 08:39:11;;;;;;;5.50;1.90;;;;;;;;;;5011042;28;20091;-76
2022/02/21 08:41:36;;;;;;;5.10;1.40;;;;;;;;;;4994403;28;20061;-76
2022/02/21 08:44:02;;;;;;;6.05;1.40;;;;;;;;;;5010533;28;20046;-76
2022/02/21 08:46:28;;;;;;;9.07;1.77;;;;;;;;;;5010487;28;20038;-76
2022/02/21 08:48:57;;;;;;;6.88;2.55;;;;;;;;;;5010539;28;20231;-76
2022/02/21 08:51:23;;;;;;;7.55;2.20;;;;;;;;;;4995181;28;20041;-75
2022/02/21 08:53:48;;;;;;;6.45;1.90;;;;;;;;;;5010617;28;20038;-76
2022/02/21 08:56:14;;;;;;;6.78;2.50;;;;;;;;;;4994476;28;20056;-75
2022/02/21 08:58:39;;;;;;;7.68;3.45;;;;;;;;;;4994508;28;20038;-76
2022/02/21 09:01:05;;;;;;;10.48;3.35;;;;;;;;;;4994528;28;20116;-76
2022/02/21 09:03:31;;;;;;;11.77;4.97;;;;;;;;;;4994509;28;20054;-76
2022/02/21 09:05:56;;;;;;;13.00;5.38;;;;;;;;;;4978099;28;20065;-76
2022/02/21 09:08:22;;;;;;;9.90;5.85;;;;;;;;;;4977966;28;20135;-76
2022/02/21 09:10:47;;;;;;;18.42;5.78;;;;;;;;;;4977888;28;20029;-76
2022/02/21 09:13:13;;;;;;;11.82;5.57;;;;;;;;;;4994202;28;20049;-75
2022/02/21 09:15:38;;;;;;;16.35;5.78;;;;;;;;;;4994493;28;20129;-76
2022/02/21 09:18:05;;;;;;;18.25;5.40;;;;;;;;;;4993927;28;20093;-76
2022/02/21 09:20:35;;;;;;;15.68;5.40;;;;;;;;;;4994405;28;20412;-76
2022/02/21 09:23:00;;;;;;;12.43;4.85;;;;;;;;;;4994566;28;20084;-76
2022/02/21 09:25:26;;;;;;;12.90;5.28;;;;;;;;;;5011170;28;20034;-76
2022/02/21 09:27:52;;;;;;;12.48;5.20;;;;;;;;;;4965801;28;20099;-75
2022/02/21 09:30:17;;;;;;;10.63;4.20;;;;;;;;;;4974621;28;20042;-75
2022/02/21 09:32:42;;;;;;;16.95;4.25;;;;;;;;;;4974692;28;20038;-75
2022/02/21 09:35:08;;;;;;;14.63;4.95;;;;;;;;;;4974629;28;20034;-77
2022/02/21 09:37:35;;;;;;;14.00;4.55;;;;;;;;;;4974914;28;20808;-77
2022/02/21 09:40:03;;;;;;;13.75;3.70;;;;;;;;;;4961610;28;21731;-77
2022/02/21 09:42:29;;;;;;;11.02;3.80;;;;;;;;;;4993983;28;20413;-77
2022/02/21 09:44:54;;;;;;;14.25;3.50;;;;;;;;;;4993858;28;20042;-77
2022/02/21 09:47:20;;;;;;;10.90;4.05;;;;;;;;;;5007617;28;20045;-77
2022/02/21 09:49:45;;;;;;;13.40;3.58;;;;;;;;;;4975929;28;20459;-77
2022/02/21 09:52:11;;;;;;;18.42;3.83;;;;;;;;;;4993663;28;20413;-78
2022/02/21 09:54:39;;;;;;;9.30;2.72;;;;;;;;;;4993517;28;20436;-77
2022/02/21 09:57:04;;;;;;;8.10;2.95;;;;;;;;;;4965184;28;20109;-77
2022/02/21 09:59:30;;;;;;;12.00;3.08;;;;;;;;;;4975458;28;20462;-78
2022/02/21 10:01:55;;;;;;;20.80;11.57;;;;;;;;;;5013714;28;20073;-77
2022/02/21 10:04:22;;;;;;;12.65;7.75;;;;;;;;;;5030133;28;20423;-77
2022/02/21 10:06:54;;;;;;;13.30;7.40;;;;;;;;;;5013676;28;20042;-78
2022/02/21 10:09:20;;;;;;;18.50;7.88;;;;;;;;;;4996797;28;20496;-78
2022/02/21 10:11:46;;;;;;;14.40;6.38;;;;;;;;;;5013231;28;20048;-78
2022/02/21 10:14:13;;;;;;;12.50;5.88;;;;;;;;;;4996915;28;20408;-78
2022/02/21 10:16:43;;;;;;;10.80;5.70;;;;;;;;;;4997724;28;20034;-78
2022/02/21 10:19:36;;;;;;;11.32;4.95;;;;;;;;;;4989578;28;20037;-77
2022/02/21 10:22:06;;;;;;;10.30;5.18;;;;;;;;;;4998769;28;20038;-78
2022/02/21 10:24:42;;;;;;;14.18;4.55;;;;;;;;;;5005096;28;20108;-78
2022/02/21 10:27:21;;;;;;;11.02;5.60;;;;;;;;;;5017302;28;20555;-78
2022/02/21 10:29:51;;;;;;;13.52;5.55;;;;;;;;;;5014256;28;20037;-78
2022/02/21 10:32:22;;;;;;;11.30;5.03;;;;;;;;;;4997315;28;20045;-78
2022/02/21 10:34:49;;;;;;;9.75;4.57;;;;;;;;;;4978552;28;20133;-78
2022/02/21 10:37:22;;;;;;;10.48;3.78;;;;;;;;;;4982192;28;20527;-78
2022/02/21 10:39:48;;;;;;;9.05;3.42;;;;;;;;;;4980383;28;20088;-78
2022/02/21 10:42:24;;;;;;;8.18;3.80;;;;;;;;;;4978198;28;20039;-78
2022/02/21 10:44:50;;;;;;;9.15;4.00;;;;;;;;;;4996838;28;20535;-78
2022/02/21 10:47:19;;;;;;;7.47;3.65;;;;;;;;;;4996109;28;20042;-77
2022/02/21 10:49:51;;;;;;;8.10;3.45;;;;;;;;;;4997226;28;20046;-77
2022/02/21 10:52:21;;;;;;;8.38;3.80;;;;;;;;;;4992195;28;20042;-77
2022/02/21 10:54:47;;;;;;;9.30;4.68;;;;;;;;;;4987907;28;20500;-78
2022/02/21 10:57:14;;;;;;;10.77;3.00;;;;;;;;;;4980921;28;20037;-77
2022/02/21 10:59:39;;;;;;;9.77;4.18;;;;;;;;;;4996870;28;20048;-77
2022/02/21 11:02:07;;;;;;;7.43;3.17;;;;;;;;;;4995507;28;20034;-78
2022/02/21 11:04:35;;;;;;;9.65;3.63;;;;;;;;;;5003476;28;20048;-78
2022/02/21 11:07:01;;;;;;;7.90;2.88;;;;;;;;;;4996163;28;20052;-78
2022/02/21 11:09:28;;;;;;;8.38;2.72;;;;;;;;;;4995273;28;20493;-78
2022/02/21 11:11:55;;;;;;;8.05;2.65;;;;;;;;;;4980070;28;20065;-79
2022/02/21 11:14:23;;;;;;;8.18;2.63;;;;;;;;;;4993599;28;20069;-79
2022/02/21 11:16:49;;;;;;;8.73;3.53;;;;;;;;;;4979182;28;20038;-78
2022/02/21 11:19:18;;;;;;;7.65;2.30;;;;;;;;;;5021907;28;20064;-78
2022/02/21 11:21:47;;;;;;;8.68;3.15;;;;;;;;;;4978145;28;20038;-78
2022/02/21 11:24:40;;;;;;;6.97;2.97;;;;;;;;;;4996519;28;20408;-77
2022/02/21 11:27:26;;;;;;;10.23;2.78;;;;;;;;;;5004707;28;20077;-77
2022/02/21 11:30:16;;;;;;;7.88;2.58;;;;;;;;;;4978372;28;20027;-78
2022/02/21 11:33:12;;;;;;;6.82;2.58;;;;;;;;;;4967326;28;20062;-78
2022/02/21 11:35:58;;;;;;;7.60;2.45;;;;;;;;;;4992672;28;20037;-78
2022/02/21 11:38:28;;;;;;;6.88;2.47;;;;;;;;;;4978810;28;20416;-79
2022/02/21 11:41:03;;;;;;;6.97;2.35;;;;;;;;;;4980260;28;20036;-79
2022/02/21 11:43:43;;;;;;;5.50;2.72;;;;;;;;;;4996410;28;20066;-79
2022/02/21 11:46:10;;;;;;;8.27;2.35;;;;;;;;;;4995543;28;20381;-79
2022/02/21 11:48:57;;;;;;;7.82;2.22;;;;;;;;;;4959797;28;20030;-79
2022/02/21 11:51:37;;;;;;;5.47;2.15;;;;;;;;;;5012571;28;20040;-79
2022/02/21 11:54:09;;;;;;;8.07;3.03;;;;;;;;;;5011408;28;20040;-78
2022/02/21 11:56:49;;;;;;;8.32;2.80;;;;;;;;;;5011969;28;20575;-78
2022/02/21 11:59:21;;;;;;;5.03;1.80;;;;;;;;;;5011666;28;20559;-78
2022/02/21 12:02:13;;;;;;;5.05;1.77;;;;;;;;;;5013253;28;20069;-79
2022/02/21 12:04:56;;;;;;;5.10;1.70;;;;;;;;;;4982998;28;20033;-79
2022/02/21 12:07:33;;;;;;;7.60;2.10;;;;;;;;;;4979560;28;20048;-78
2022/02/21 12:10:12;;;;;;;5.45;2.20;;;;;;;;;;4975533;28;20408;-78
2022/02/21 12:13:11;;;;;;;6.50;1.92;;;;;;;;;;4976496;28;20034;-80
2022/02/21 12:15:37;;;;;;;8.68;2.13;;;;;;;;;;5009226;28;20069;-79
2022/02/21 12:18:09;;;;;;;6.43;1.63;;;;;;;;;;4979194;28;20152;-78
2022/02/21 12:20:35;;;;;;;6.47;1.83;;;;;;;;;;5010500;28;20589;-78
2022/02/21 12:23:16;;;;;;;7.70;2.65;;;;;;;;;;4977935;28;20044;-78
2022/02/21 12:25:43;;;;;;;7.72;2.78;;;;;;;;;;5013189;28;20044;-79
2022/02/21 12:28:11;;;;;;;9.30;3.08;;;;;;;;;;4978779;28;20038;-78
2022/02/21 12:30:38;;;;;;;9.20;2.45;;;;;;;;;;5003315;28;20052;-78
2022/02/21 12:33:05;;;;;;;7.43;3.22;;;;;;;;;;5008907;28;20061;-78
2022/02/21 12:35:45;;;;;;;8.43;2.70;;;;;;;;;;4993437;28;20042;-78
2022/02/21 12:38:10;;;;;;;9.00;2.72;;;;;;;;;;4994649;28;20033;-78
2022/02/21 12:40:36;;;;;;;6.70;2.35;;;;;;;;;;4991576;28;20037;-78
2022/02/21 12:43:01;;;;;;;6.10;2.20;;;;;;;;;;4978375;28;20501;-78
2022/02/21 12:45:27;;;;;;;7.50;2.10;;;;;;;;;;4994205;28;20046;-78
2022/02/21 12:47:55;;;;;;;8.02;2.13;;;;;;;;;;4978249;28;20515;-78
2022/02/21 12:50:25;;;;;;;8.60;2.60;;;;;;;;;;4967959;28;20046;-78
2022/02/21 12:52:58;;;;;;;9.00;2.85;;;;;;;;;;4976839;28;20030;-78
2022/02/21 12:55:23;;;;;;;7.97;2.90;;;;;;;;;;4974901;28;20556;-78
2022/02/21 12:58:22;;;;;;;7.93;2.90;;;;;;;;;;4976212;28;20104;-77
2022/02/21 13:00:48;;;;;;;8.65;3.05;;;;;;;;;;4992015;28;20038;-78
2022/02/21 13:03:21;;;;;;;12.75;3.47;;;;;;;;;;4994338;28;20030;-78
2022/02/21 13:05:57;;;;;;;9.05;3.05;;;;;;;;;;5009230;28;20042;-78
2022/02/21 13:08:43;;;;;;;7.90;3.15;;;;;;;;;;4995503;28;20042;-77
2022/02/21 13:11:09;;;;;;;8.45;2.63;;;;;;;;;;4990872;28;20048;-77
2022/02/21 13:13:44;;;;;;;8.43;2.60;;;;;;;;;;4957603;28;20046;-77
2022/02/21 13:16:10;;;;;;;8.38;2.60;;;;;;;;;;4976422;28;20042;-77
2022/02/21 13:19:10;;;;;;;8.82;3.53;;;;;;;;;;4975481;28;20411;-77
2022/02/21 13:21:40;;;;;;;10.30;2.90;;;;;;;;;;4975952;28;20045;-77
2022/02/21 13:24:17;;;;;;;8.63;2.85;;;;;;;;;;4976616;28;20078;-77
2022/02/21 13:26:53;;;;;;;12.27;3.90;;;;;;;;;;4965396;28;20026;-78
2022/02/21 13:29:36;;;;;;;11.25;2.67;;;;;;;;;;4995659;28;20029;-79
2022/02/21 13:32:34;;;;;;;8.43;3.25;;;;;;;;;;4963994;28;20030;-78
2022/02/21 13:35:03;;;;;;;7.63;3.28;;;;;;;;;;5029950;28;20577;-79
2022/02/21 13:37:31;;;;;;;8.57;3.17;;;;;;;;;;4998552;28;20037;-78
2022/02/21 13:40:26;;;;;;;20.45;13.68;;;;;;;;;;4992017;28;20333;-79
2022/02/21 13:42:52;;;;;;;12.82;5.38;;;;;;;;;;4976321;28;20405;-78
2022/02/21 13:45:25;;;;;;;12.13;4.82;;;;;;;;;;4996780;28;20042;-79
2022/02/21 13:48:11;;;;;;;9.95;4.95;;;;;;;;;;4979001;28;20050;-79
2022/02/21 13:50:50;;;;;;;9.73;4.20;;;;;;;;;;5010579;28;20050;-78
2022/02/21 13:53:22;;;;;;;11.25;4.68;;;;;;;;;;4982516;28;20489;-78
2022/02/21 13:56:03;;;;;;;8.00;4.23;;;;;;;;;;5015604;28;20105;-78
2022/02/21 13:58:42;;;;;;;9.80;4.53;;;;;;;;;;4980866;28;20038;-78
2022/02/21 14:01:26;;;;;;;9.82;4.45;;;;;;;;;;4998721;28;20038;-77
2022/02/21 14:03:59;;;;;;;10.13;3.95;;;;;;;;;;4967294;28;20033;-78
2022/02/21 14:06:36;;;;;;;9.52;3.72;;;;;;;;;;4997808;28;20508;-79
2022/02/21 14:09:17;;;;;;;16.95;5.43;;;;;;;;;;4981042;28;20068;-78
2022/02/21 14:11:42;;;;;;;13.27;4.25;;;;;;;;;;4997037;28;20080;-79
2022/02/21 14:14:16;;;;;;;14.55;4.78;;;;;;;;;;4980880;28;20038;-81
2022/02/21 14:16:42;;;;;;;9.05;3.60;;;;;;;;;;4997811;28;20038;-79
2022/02/21 14:19:08;;;;;;;13.60;5.10;;;;;;;;;;4965019;28;20526;-80
2022/02/21 14:21:34;;;;;;;11.07;3.95;;;;;;;;;;4980346;28;20037;-81
2022/02/21 14:23:59;;;;;;;8.40;3.53;;;;;;;;;;4980997;28;20841;-79
2022/02/21 14:26:25;;;;;;;14.90;4.63;;;;;;;;;;4997129;28;20046;-79
2022/02/21 14:28:50;;;;;;;12.13;4.72;;;;;;;;;;4997619;28;20060;-79
2022/02/21 14:31:16;;;;;;;10.68;3.75;;;;;;;;;;4981180;28;20053;-79
2022/02/21 14:33:42;;;;;;;11.20;3.30;;;;;;;;;;4981047;28;20080;-79
2022/02/21 14:36:08;;;;;;;8.73;3.38;;;;;;;;;;4978774;28;20467;-78
2022/02/21 14:38:33;;;;;;;14.55;3.63;;;;;;;;;;4993281;28;20045;-79
2022/02/21 14:40:59;;;;;;;9.82;3.50;;;;;;;;;;4970990;28;20042;-79
2022/02/21 14:43:25;;;;;;;11.25;3.45;;;;;;;;;;4992446;28;20042;-79
2022/02/21 14:45:50;;;;;;;25.13;3.63;;;;;;;;;;4976976;28;20049;-79